sensor_id;sensor_type;location;lat;lon;timestamp;temperature;humidity
43671;DHT22;29267;50.906;7.248;2022-12-07T00:01:12;4.10;99.90
43671;DHT22;29267;50.906;7.248;2022-12-07T00:03:39;4.10;99.90
43671;DHT22;29267;50.906;7.248;2022-12-07T00:06:06;4.20;99.90
43671;DHT22;29267;50.906;7.248;2022-12-07T00:08:33;4.20;99.90
43671;DHT22;29267;50.906;7.248;2022-12-07T00:11:04;4.20;99.90
43671;DHT22;29267;50.906;7.248;2022-12-07T00:13:31;4.20;99.90
43671;DHT22;29267;50.906;7.248;2022-12-07T00:16:06;4.30;99.90
43671;DHT22;29267;50.906;7.248;2022-12-07T00:18:32;4.30;99.90
43671;DHT22;29267;50.906;7.248;2022-12-07T00:21:06;4.30;99.90
43671;DHT22;29267;50.906;7.248;2022-12-07T00:23:33;4.30;99.90
43671;DHT22;29267;50.906;7.248;2022-12-07T00:26:06;4.30;99.90
43671;DHT22;29267;50.906;7.248;2022-12-07T00:28:32;4.30;99.90
43671;DHT22;29267;50.906;7.248;2022-12-07T00:31:10;4.30;99.90
43671;DHT22;29267;50.906;7.248;2022-12-07T00:33:37;4.40;99.90
43671;DHT22;29267;50.906;7.248;2022-12-07T00:36:09;4.40;99.90
43671;DHT22;29267;50.906;7.248;2022-12-07T00:38:36;4.40;99.90
43671;DHT22;29267;50.906;7.248;2022-12-07T00:41:09;4.40;99.90
43671;DHT22;29267;50.906;7.248;2022-12-07T00:43:35;4.40;99.90
43671;DHT22;29267;50.906;7.248;2022-12-07T00:46:00;4.40;99.90
43671;DHT22;29267;50.906;7.248;2022-12-07T00:48:26;4.40;99.90
43671;DHT22;29267;50.906;7.248;2022-12-07T00:50:52;4.40;99.90
43671;DHT22;29267;50.906;7.248;2022-12-07T00:53:18;4.40;99.90
43671;DHT22;29267;50.906;7.248;2022-12-07T00:55:44;4.40;99.90
43671;DHT22;29267;50.906;7.248;2022-12-07T00:58:09;4.50;99.90
43671;DHT22;29267;50.906;7.248;2022-12-07T01:00:37;4.40;99.90
43671;DHT22;29267;50.906;7.248;2022-12-07T01:03:04;4.40;99.90
43671;DHT22;29267;50.906;7.248;2022-12-07T01:05:29;4.40;99.90
43671;DHT22;29267;50.906;7.248;2022-12-07T01:07:55;4.40;99.90
43671;DHT22;29267;50.906;7.248;2022-12-07T01:10:22;4.50;99.90
43671;DHT22;29267;50.906;7.248;2022-12-07T01:12:47;4.50;99.90
43671;DHT22;29267;50.906;7.248;2022-12-07T01:15:13;4.50;99.90
43671;DHT22;29267;50.906;7.248;2022-12-07T01:17:38;4.50;99.90
43671;DHT22;29267;50.906;7.248;2022-12-07T01:20:06;4.50;99.90
43671;DHT22;29267;50.906;7.248;2022-12-07T01:22:39;4.50;99.90
43671;DHT22;29267;50.906;7.248;2022-12-07T01:25:06;4.50;99.90
43671;DHT22;29267;50.906;7.248;2022-12-07T01:27:33;4.50;99.90
43671;DHT22;29267;50.906;7.248;2022-12-07T01:29:59;4.50;99.90
43671;DHT22;29267;50.906;7.248;2022-12-07T01:32:25;4.50;99.90
43671;DHT22;29267;50.906;7.248;2022-12-07T01:34:50;4.50;99.90
43671;DHT22;29267;50.906;7.248;2022-12-07T01:37:16;4.50;99.90
43671;DHT22;29267;50.906;7.248;2022-12-07T01:39:41;4.50;99.90
43671;DHT22;29267;50.906;7.248;2022-12-07T01:42:11;4.50;99.90
43671;DHT22;29267;50.906;7.248;2022-12-07T01:47:44;4.60;99.90
43671;DHT22;29267;50.906;7.248;2022-12-07T01:50:11;4.60;99.90
43671;DHT22;29267;50.906;7.248;2022-12-07T01:52:37;4.60;99.90
43671;DHT22;29267;50.906;7.248;2022-12-07T01:55:07;4.60;99.90
43671;DHT22;29267;50.906;7.248;2022-12-07T01:57:35;4.60;99.90
43671;DHT22;29267;50.906;7.248;2022-12-07T02:00:02;4.60;99.90
43671;DHT22;29267;50.906;7.248;2022-12-07T02:02:34;4.60;99.90
43671;DHT22;29267;50.906;7.248;2022-12-07T02:05:02;4.60;99.90
43671;DHT22;29267;50.906;7.248;2022-12-07T02:07:29;4.60;99.90
43671;DHT22;29267;50.906;7.248;2022-12-07T02:09:55;4.60;99.90
43671;DHT22;29267;50.906;7.248;2022-12-07T02:12:21;4.60;99.90
43671;DHT22;29267;50.906;7.248;2022-12-07T02:14:48;4.60;99.90
43671;DHT22;29267;50.906;7.248;2022-12-07T02:17:47;4.60;99.90
43671;DHT22;29267;50.906;7.248;2022-12-07T02:20:23;4.60;99.90
43671;DHT22;29267;50.906;7.248;2022-12-07T02:23:07;4.60;99.90
43671;DHT22;29267;50.906;7.248;2022-12-07T02:30:51;4.60;99.90
43671;DHT22;29267;50.906;7.248;2022-12-07T02:33:28;4.60;99.90
43671;DHT22;29267;50.906;7.248;2022-12-07T02:38:35;4.50;99.90
43671;DHT22;29267;50.906;7.248;2022-12-07T02:41:26;4.50;99.90
43671;DHT22;29267;50.906;7.248;2022-12-07T02:43:55;4.50;99.90
43671;DHT22;29267;50.906;7.248;2022-12-07T02:46:25;4.50;99.90
43671;DHT22;29267;50.906;7.248;2022-12-07T02:48:53;4.50;99.90
43671;DHT22;29267;50.906;7.248;2022-12-07T02:51:20;4.50;99.90
43671;DHT22;29267;50.906;7.248;2022-12-07T02:53:46;4.50;99.90
43671;DHT22;29267;50.906;7.248;2022-12-07T02:59:02;4.50;99.90
43671;DHT22;29267;50.906;7.248;2022-12-07T03:05:00;4.50;99.90
43671;DHT22;29267;50.906;7.248;2022-12-07T03:10:08;4.50;99.90
43671;DHT22;29267;50.906;7.248;2022-12-07T03:12:44;4.50;99.90
43671;DHT22;29267;50.906;7.248;2022-12-07T03:15:16;4.50;99.90
43671;DHT22;29267;50.906;7.248;2022-12-07T03:17:46;4.50;99.90
43671;DHT22;29267;50.906;7.248;2022-12-07T03:20:14;4.50;99.90
43671;DHT22;29267;50.906;7.248;2022-12-07T03:22:42;4.50;99.90
43671;DHT22;29267;50.906;7.248;2022-12-07T03:25:11;4.50;99.90
43671;DHT22;29267;50.906;7.248;2022-12-07T03:30:20;4.50;99.90
43671;DHT22;29267;50.906;7.248;2022-12-07T03:33:11;4.60;99.90
43671;DHT22;29267;50.906;7.248;2022-12-07T03:35:46;4.50;99.90
43671;DHT22;29267;50.906;7.248;2022-12-07T03:38:26;4.50;99.90
43671;DHT22;29267;50.906;7.248;2022-12-07T03:41:01;4.50;99.90
43671;DHT22;29267;50.906;7.248;2022-12-07T03:43:31;4.50;99.90
43671;DHT22;29267;50.906;7.248;2022-12-07T03:46:05;4.50;99.90
43671;DHT22;29267;50.906;7.248;2022-12-07T03:54:45;4.50;99.90
43671;DHT22;29267;50.906;7.248;2022-12-07T03:56:52;4.50;99.90
43671;DHT22;29267;50.906;7.248;2022-12-07T03:59:19;4.50;99.90
43671;DHT22;29267;50.906;7.248;2022-12-07T04:01:51;4.50;99.90
43671;DHT22;29267;50.906;7.248;2022-12-07T04:04:17;4.50;99.90
43671;DHT22;29267;50.906;7.248;2022-12-07T04:06:43;4.50;99.90
43671;DHT22;29267;50.906;7.248;2022-12-07T04:09:08;4.50;99.90
43671;DHT22;29267;50.906;7.248;2022-12-07T04:11:34;4.50;99.90
43671;DHT22;29267;50.906;7.248;2022-12-07T04:13:59;4.50;99.90
43671;DHT22;29267;50.906;7.248;2022-12-07T04:16:56;4.50;99.90
43671;DHT22;29267;50.906;7.248;2022-12-07T04:19:27;4.50;99.90
43671;DHT22;29267;50.906;7.248;2022-12-07T04:21:54;4.50;99.90
43671;DHT22;29267;50.906;7.248;2022-12-07T04:24:19;4.50;99.90
43671;DHT22;29267;50.906;7.248;2022-12-07T04:26:46;4.40;99.90
43671;DHT22;29267;50.906;7.248;2022-12-07T04:29:12;4.50;99.90
43671;DHT22;29267;50.906;7.248;2022-12-07T04:31:38;4.50;99.90
43671;DHT22;29267;50.906;7.248;2022-12-07T04:34:04;4.50;99.90
43671;DHT22;29267;50.906;7.248;2022-12-07T04:36:31;4.50;99.90
43671;DHT22;29267;50.906;7.248;2022-12-07T04:38:57;4.50;99.90
43671;DHT22;29267;50.906;7.248;2022-12-07T04:41:23;4.40;99.90
43671;DHT22;29267;50.906;7.248;2022-12-07T04:43:53;4.40;99.90
43671;DHT22;29267;50.906;7.248;2022-12-07T04:46:19;4.50;99.90
43671;DHT22;29267;50.906;7.248;2022-12-07T04:48:45;4.50;99.90
43671;DHT22;29267;50.906;7.248;2022-12-07T04:51:10;4.50;99.90
43671;DHT22;29267;50.906;7.248;2022-12-07T04:53:36;4.50;99.90
43671;DHT22;29267;50.906;7.248;2022-12-07T04:56:01;4.50;99.90
43671;DHT22;29267;50.906;7.248;2022-12-07T04:58:27;4.50;99.90
43671;DHT22;29267;50.906;7.248;2022-12-07T05:00:56;4.50;99.90
43671;DHT22;29267;50.906;7.248;2022-12-07T05:03:21;4.50;99.90
43671;DHT22;29267;50.906;7.248;2022-12-07T05:05:47;4.60;99.90
43671;DHT22;29267;50.906;7.248;2022-12-07T05:08:13;4.50;99.90
43671;DHT22;29267;50.906;7.248;2022-12-07T05:10:38;4.50;99.90
43671;DHT22;29267;50.906;7.248;2022-12-07T05:13:04;4.50;99.90
43671;DHT22;29267;50.906;7.248;2022-12-07T05:15:29;4.50;99.90
43671;DHT22;29267;50.906;7.248;2022-12-07T05:17:55;4.50;99.90
43671;DHT22;29267;50.906;7.248;2022-12-07T05:20:20;4.50;99.90
43671;DHT22;29267;50.906;7.248;2022-12-07T05:22:46;4.50;99.90
43671;DHT22;29267;50.906;7.248;2022-12-07T05:25:12;4.40;99.90
43671;DHT22;29267;50.906;7.248;2022-12-07T05:27:37;4.40;99.90
43671;DHT22;29267;50.906;7.248;2022-12-07T05:30:04;4.40;99.90
43671;DHT22;29267;50.906;7.248;2022-12-07T05:32:30;4.50;99.90
43671;DHT22;29267;50.906;7.248;2022-12-07T05:34:55;4.40;99.90
43671;DHT22;29267;50.906;7.248;2022-12-07T05:37:21;4.40;99.90
43671;DHT22;29267;50.906;7.248;2022-12-07T05:39:47;4.40;99.90
43671;DHT22;29267;50.906;7.248;2022-12-07T05:42:12;4.40;99.90
43671;DHT22;29267;50.906;7.248;2022-12-07T05:44:47;4.40;99.90
43671;DHT22;29267;50.906;7.248;2022-12-07T05:47:14;4.40;99.90
43671;DHT22;29267;50.906;7.248;2022-12-07T05:49:40;4.40;99.90
43671;DHT22;29267;50.906;7.248;2022-12-07T05:52:06;4.40;99.90
43671;DHT22;29267;50.906;7.248;2022-12-07T05:54:32;4.40;99.90
43671;DHT22;29267;50.906;7.248;2022-12-07T05:56:58;4.50;99.90
43671;DHT22;29267;50.906;7.248;2022-12-07T05:59:24;4.50;99.90
43671;DHT22;29267;50.906;7.248;2022-12-07T06:01:52;4.50;99.90
43671;DHT22;29267;50.906;7.248;2022-12-07T06:04:18;4.50;99.90
43671;DHT22;29267;50.906;7.248;2022-12-07T06:06:44;4.50;99.90
43671;DHT22;29267;50.906;7.248;2022-12-07T06:09:10;4.50;99.90
43671;DHT22;29267;50.906;7.248;2022-12-07T06:11:36;4.50;99.90
43671;DHT22;29267;50.906;7.248;2022-12-07T06:14:20;4.50;99.90
43671;DHT22;29267;50.906;7.248;2022-12-07T06:16:45;4.40;99.90
43671;DHT22;29267;50.906;7.248;2022-12-07T06:19:11;4.50;99.90
43671;DHT22;29267;50.906;7.248;2022-12-07T06:21:36;4.40;99.90
43671;DHT22;29267;50.906;7.248;2022-12-07T06:24:02;4.50;99.90
43671;DHT22;29267;50.906;7.248;2022-12-07T06:26:28;4.50;99.90
43671;DHT22;29267;50.906;7.248;2022-12-07T06:28:54;4.40;99.90
43671;DHT22;29267;50.906;7.248;2022-12-07T06:31:19;4.40;99.90
43671;DHT22;29267;50.906;7.248;2022-12-07T06:33:45;4.40;99.90
43671;DHT22;29267;50.906;7.248;2022-12-07T06:36:11;4.40;99.90
43671;DHT22;29267;50.906;7.248;2022-12-07T06:38:37;4.40;99.90
43671;DHT22;29267;50.906;7.248;2022-12-07T06:41:02;4.40;99.90
43671;DHT22;29267;50.906;7.248;2022-12-07T06:43:29;4.30;99.90
43671;DHT22;29267;50.906;7.248;2022-12-07T06:45:54;4.30;99.90
43671;DHT22;29267;50.906;7.248;2022-12-07T06:48:20;4.40;99.90
43671;DHT22;29267;50.906;7.248;2022-12-07T06:50:46;4.40;99.90
43671;DHT22;29267;50.906;7.248;2022-12-07T06:53:12;4.40;99.90
43671;DHT22;29267;50.906;7.248;2022-12-07T06:55:38;4.30;99.90
43671;DHT22;29267;50.906;7.248;2022-12-07T06:58:03;4.30;99.90
43671;DHT22;29267;50.906;7.248;2022-12-07T07:00:29;4.30;99.90
43671;DHT22;29267;50.906;7.248;2022-12-07T07:02:55;4.30;99.90
43671;DHT22;29267;50.906;7.248;2022-12-07T07:05:21;4.30;99.90
43671;DHT22;29267;50.906;7.248;2022-12-07T07:07:48;4.30;99.90
43671;DHT22;29267;50.906;7.248;2022-12-07T07:10:14;4.30;99.90
43671;DHT22;29267;50.906;7.248;2022-12-07T07:12:39;4.30;99.90
43671;DHT22;29267;50.906;7.248;2022-12-07T07:15:05;4.30;99.90
43671;DHT22;29267;50.906;7.248;2022-12-07T07:17:31;4.20;99.90
43671;DHT22;29267;50.906;7.248;2022-12-07T07:19:56;4.20;99.90
43671;DHT22;29267;50.906;7.248;2022-12-07T07:22:22;4.30;99.90
43671;DHT22;29267;50.906;7.248;2022-12-07T07:24:47;4.30;99.90
43671;DHT22;29267;50.906;7.248;2022-12-07T07:27:13;4.30;99.90
43671;DHT22;29267;50.906;7.248;2022-12-07T07:29:38;4.20;99.90
43671;DHT22;29267;50.906;7.248;2022-12-07T07:32:04;4.30;99.90
43671;DHT22;29267;50.906;7.248;2022-12-07T07:34:30;4.30;99.90
43671;DHT22;29267;50.906;7.248;2022-12-07T07:36:55;4.20;99.90
43671;DHT22;29267;50.906;7.248;2022-12-07T07:39:21;4.10;99.90
43671;DHT22;29267;50.906;7.248;2022-12-07T07:41:46;4.00;99.90
43671;DHT22;29267;50.906;7.248;2022-12-07T07:44:12;3.90;99.90
43671;DHT22;29267;50.906;7.248;2022-12-07T07:46:38;3.90;99.90
43671;DHT22;29267;50.906;7.248;2022-12-07T07:49:03;4.00;99.90
43671;DHT22;29267;50.906;7.248;2022-12-07T07:51:29;4.00;99.90
43671;DHT22;29267;50.906;7.248;2022-12-07T07:53:54;4.00;99.90
43671;DHT22;29267;50.906;7.248;2022-12-07T07:56:20;4.10;99.90
43671;DHT22;29267;50.906;7.248;2022-12-07T07:58:46;4.10;99.90
43671;DHT22;29267;50.906;7.248;2022-12-07T08:01:11;4.20;99.90
43671;DHT22;29267;50.906;7.248;2022-12-07T08:03:39;4.20;99.90
43671;DHT22;29267;50.906;7.248;2022-12-07T08:06:05;4.10;99.90
43671;DHT22;29267;50.906;7.248;2022-12-07T08:08:31;4.10;99.90
43671;DHT22;29267;50.906;7.248;2022-12-07T08:10:56;4.20;99.90
43671;DHT22;29267;50.906;7.248;2022-12-07T08:13:25;4.30;99.90
43671;DHT22;29267;50.906;7.248;2022-12-07T08:15:51;4.40;99.90
43671;DHT22;29267;50.906;7.248;2022-12-07T08:18:17;4.40;99.90
43671;DHT22;29267;50.906;7.248;2022-12-07T08:20:42;4.50;99.90
43671;DHT22;29267;50.906;7.248;2022-12-07T08:23:08;4.60;99.90
43671;DHT22;29267;50.906;7.248;2022-12-07T08:25:35;4.60;99.90
43671;DHT22;29267;50.906;7.248;2022-12-07T08:28:01;4.70;99.90
43671;DHT22;29267;50.906;7.248;2022-12-07T08:30:28;4.80;99.90
43671;DHT22;29267;50.906;7.248;2022-12-07T08:32:55;4.80;99.90
43671;DHT22;29267;50.906;7.248;2022-12-07T08:35:21;4.90;99.90
43671;DHT22;29267;50.906;7.248;2022-12-07T08:37:46;5.00;99.90
43671;DHT22;29267;50.906;7.248;2022-12-07T08:40:13;5.00;99.90
43671;DHT22;29267;50.906;7.248;2022-12-07T08:42:47;5.00;99.90
43671;DHT22;29267;50.906;7.248;2022-12-07T08:45:14;5.00;99.90
43671;DHT22;29267;50.906;7.248;2022-12-07T08:48:04;4.90;99.90
43671;DHT22;29267;50.906;7.248;2022-12-07T08:50:32;4.90;99.90
43671;DHT22;29267;50.906;7.248;2022-12-07T08:52:58;4.90;99.90
43671;DHT22;29267;50.906;7.248;2022-12-07T08:55:25;4.90;99.90
43671;DHT22;29267;50.906;7.248;2022-12-07T08:57:52;5.00;99.90
43671;DHT22;29267;50.906;7.248;2022-12-07T09:00:18;4.90;99.90
43671;DHT22;29267;50.906;7.248;2022-12-07T09:02:45;4.90;99.90
43671;DHT22;29267;50.906;7.248;2022-12-07T09:05:11;4.90;99.90
43671;DHT22;29267;50.906;7.248;2022-12-07T09:07:37;5.00;99.90
43671;DHT22;29267;50.906;7.248;2022-12-07T09:10:06;5.00;99.90
43671;DHT22;29267;50.906;7.248;2022-12-07T09:12:31;5.10;99.90
43671;DHT22;29267;50.906;7.248;2022-12-07T09:14:57;5.00;99.90
43671;DHT22;29267;50.906;7.248;2022-12-07T09:17:23;5.00;99.90
43671;DHT22;29267;50.906;7.248;2022-12-07T09:19:48;5.00;99.90
43671;DHT22;29267;50.906;7.248;2022-12-07T09:22:14;5.00;99.90
43671;DHT22;29267;50.906;7.248;2022-12-07T09:24:39;4.90;99.90
43671;DHT22;29267;50.906;7.248;2022-12-07T09:27:05;4.90;99.90
43671;DHT22;29267;50.906;7.248;2022-12-07T09:29:31;4.90;99.90
43671;DHT22;29267;50.906;7.248;2022-12-07T09:31:56;5.00;99.90
43671;DHT22;29267;50.906;7.248;2022-12-07T09:34:22;5.10;99.90
43671;DHT22;29267;50.906;7.248;2022-12-07T09:36:47;5.10;99.90
43671;DHT22;29267;50.906;7.248;2022-12-07T09:39:13;5.10;99.90
43671;DHT22;29267;50.906;7.248;2022-12-07T09:41:40;5.10;99.90
43671;DHT22;29267;50.906;7.248;2022-12-07T09:44:11;5.30;99.90
43671;DHT22;29267;50.906;7.248;2022-12-07T09:46:40;5.40;99.90
43671;DHT22;29267;50.906;7.248;2022-12-07T09:49:18;5.50;99.90
43671;DHT22;29267;50.906;7.248;2022-12-07T09:51:45;5.60;99.90
43671;DHT22;29267;50.906;7.248;2022-12-07T09:54:15;5.60;99.90
43671;DHT22;29267;50.906;7.248;2022-12-07T09:56:42;5.60;99.90
43671;DHT22;29267;50.906;7.248;2022-12-07T09:59:18;5.60;99.90
43671;DHT22;29267;50.906;7.248;2022-12-07T10:01:48;5.70;99.90
43671;DHT22;29267;50.906;7.248;2022-12-07T10:04:18;5.60;99.90
43671;DHT22;29267;50.906;7.248;2022-12-07T10:06:44;5.60;99.90
43671;DHT22;29267;50.906;7.248;2022-12-07T10:09:12;5.70;99.90
43671;DHT22;29267;50.906;7.248;2022-12-07T10:12:07;5.80;99.90
43671;DHT22;29267;50.906;7.248;2022-12-07T10:14:37;5.90;99.90
43671;DHT22;29267;50.906;7.248;2022-12-07T10:19:50;5.90;99.90
43671;DHT22;29267;50.906;7.248;2022-12-07T10:22:16;5.90;99.90
43671;DHT22;29267;50.906;7.248;2022-12-07T10:24:44;5.90;99.90
43671;DHT22;29267;50.906;7.248;2022-12-07T10:27:37;5.90;99.90
43671;DHT22;29267;50.906;7.248;2022-12-07T10:30:07;6.00;99.90
43671;DHT22;29267;50.906;7.248;2022-12-07T10:32:36;5.90;99.90
43671;DHT22;29267;50.906;7.248;2022-12-07T10:35:25;5.90;99.90
43671;DHT22;29267;50.906;7.248;2022-12-07T10:37:52;5.90;99.90
43671;DHT22;29267;50.906;7.248;2022-12-07T10:40:31;5.90;99.90
43671;DHT22;29267;50.906;7.248;2022-12-07T10:43:15;5.80;99.90
43671;DHT22;29267;50.906;7.248;2022-12-07T10:48:29;5.70;99.90
43671;DHT22;29267;50.906;7.248;2022-12-07T10:53:35;5.60;99.90
43671;DHT22;29267;50.906;7.248;2022-12-07T11:01:49;5.60;99.90
43671;DHT22;29267;50.906;7.248;2022-12-07T11:07:34;5.40;99.90
43671;DHT22;29267;50.906;7.248;2022-12-07T11:13:25;5.50;99.90
43671;DHT22;29267;50.906;7.248;2022-12-07T11:21:20;5.90;99.90
43671;DHT22;29267;50.906;7.248;2022-12-07T11:24:03;5.90;99.90
43671;DHT22;29267;50.906;7.248;2022-12-07T11:29:40;5.90;99.90
43671;DHT22;29267;50.906;7.248;2022-12-07T11:37:32;6.00;99.90
43671;DHT22;29267;50.906;7.248;2022-12-07T11:40:32;6.00;99.90
43671;DHT22;29267;50.906;7.248;2022-12-07T11:43:05;6.10;99.90
43671;DHT22;29267;50.906;7.248;2022-12-07T11:45:34;6.30;99.90
43671;DHT22;29267;50.906;7.248;2022-12-07T11:48:06;6.40;99.90
43671;DHT22;29267;50.906;7.248;2022-12-07T11:50:41;6.60;99.90
43671;DHT22;29267;50.906;7.248;2022-12-07T12:03:56;6.80;99.90
43671;DHT22;29267;50.906;7.248;2022-12-07T12:06:23;6.90;99.90
43671;DHT22;29267;50.906;7.248;2022-12-07T12:14:42;6.50;99.90
43671;DHT22;29267;50.906;7.248;2022-12-07T12:22:56;5.90;99.90
43671;DHT22;29267;50.906;7.248;2022-12-07T12:25:39;5.90;99.90
43671;DHT22;29267;50.906;7.248;2022-12-07T12:28:24;5.80;99.90
43671;DHT22;29267;50.906;7.248;2022-12-07T12:31:06;5.70;99.90
43671;DHT22;29267;50.906;7.248;2022-12-07T12:33:33;5.60;99.90
43671;DHT22;29267;50.906;7.248;2022-12-07T12:36:23;5.60;99.90
43671;DHT22;29267;50.906;7.248;2022-12-07T12:47:02;5.70;99.90
43671;DHT22;29267;50.906;7.248;2022-12-07T12:49:40;5.80;99.90
43671;DHT22;29267;50.906;7.248;2022-12-07T12:55:11;6.20;99.90
43671;DHT22;29267;50.906;7.248;2022-12-07T12:57:37;6.30;99.90
43671;DHT22;29267;50.906;7.248;2022-12-07T13:00:21;6.40;99.90
43671;DHT22;29267;50.906;7.248;2022-12-07T13:02:53;6.50;99.90
43671;DHT22;29267;50.906;7.248;2022-12-07T13:05:25;6.40;99.90
43671;DHT22;29267;50.906;7.248;2022-12-07T13:26:22;6.50;99.90
43671;DHT22;29267;50.906;7.248;2022-12-07T13:28:52;6.40;99.90
43671;DHT22;29267;50.906;7.248;2022-12-07T13:31:43;6.20;99.90
43671;DHT22;29267;50.906;7.248;2022-12-07T13:34:38;6.20;99.90
43671;DHT22;29267;50.906;7.248;2022-12-07T13:39:57;6.20;99.90
43671;DHT22;29267;50.906;7.248;2022-12-07T13:42:30;6.10;99.90
43671;DHT22;29267;50.906;7.248;2022-12-07T13:44:58;6.10;99.90
43671;DHT22;29267;50.906;7.248;2022-12-07T13:47:36;6.10;99.90
43671;DHT22;29267;50.906;7.248;2022-12-07T13:50:25;6.00;99.90
43671;DHT22;29267;50.906;7.248;2022-12-07T13:52:55;6.00;99.90
43671;DHT22;29267;50.906;7.248;2022-12-07T13:55:21;5.90;99.90
43671;DHT22;29267;50.906;7.248;2022-12-07T13:57:50;5.90;99.90
43671;DHT22;29267;50.906;7.248;2022-12-07T14:00:21;5.90;99.90
43671;DHT22;29267;50.906;7.248;2022-12-07T14:05:41;5.80;99.90
43671;DHT22;29267;50.906;7.248;2022-12-07T14:10:39;5.80;99.90
43671;DHT22;29267;50.906;7.248;2022-12-07T14:13:38;5.70;99.90
43671;DHT22;29267;50.906;7.248;2022-12-07T14:18:51;5.70;99.90
43671;DHT22;29267;50.906;7.248;2022-12-07T14:21:19;5.70;99.90
43671;DHT22;29267;50.906;7.248;2022-12-07T14:26:31;5.60;99.90
43671;DHT22;29267;50.906;7.248;2022-12-07T14:31:52;5.60;99.90
43671;DHT22;29267;50.906;7.248;2022-12-07T14:34:20;5.60;99.90
43671;DHT22;29267;50.906;7.248;2022-12-07T14:36:46;5.50;99.90
43671;DHT22;29267;50.906;7.248;2022-12-07T14:39:12;5.40;99.90
43671;DHT22;29267;50.906;7.248;2022-12-07T14:41:37;5.40;99.90
43671;DHT22;29267;50.906;7.248;2022-12-07T14:44:20;5.40;99.90
43671;DHT22;29267;50.906;7.248;2022-12-07T14:46:47;5.40;99.90
43671;DHT22;29267;50.906;7.248;2022-12-07T14:49:12;5.40;99.90
43671;DHT22;29267;50.906;7.248;2022-12-07T14:51:39;5.40;99.90
43671;DHT22;29267;50.906;7.248;2022-12-07T14:54:07;5.40;99.90
43671;DHT22;29267;50.906;7.248;2022-12-07T14:56:38;5.40;99.90
43671;DHT22;29267;50.906;7.248;2022-12-07T14:59:03;5.30;99.90
43671;DHT22;29267;50.906;7.248;2022-12-07T15:01:29;5.30;99.90
43671;DHT22;29267;50.906;7.248;2022-12-07T15:03:54;5.20;99.90
43671;DHT22;29267;50.906;7.248;2022-12-07T15:06:20;5.10;99.90
43671;DHT22;29267;50.906;7.248;2022-12-07T15:08:45;5.10;99.90
43671;DHT22;29267;50.906;7.248;2022-12-07T15:11:15;5.00;99.90
43671;DHT22;29267;50.906;7.248;2022-12-07T15:13:41;5.00;99.90
43671;DHT22;29267;50.906;7.248;2022-12-07T15:16:26;4.90;99.90
43671;DHT22;29267;50.906;7.248;2022-12-07T15:18:51;4.90;99.90
43671;DHT22;29267;50.906;7.248;2022-12-07T15:21:17;4.90;99.90
43671;DHT22;29267;50.906;7.248;2022-12-07T15:23:43;4.80;99.90
43671;DHT22;29267;50.906;7.248;2022-12-07T15:26:10;4.80;99.90
43671;DHT22;29267;50.906;7.248;2022-12-07T15:28:36;4.80;99.90
43671;DHT22;29267;50.906;7.248;2022-12-07T15:31:01;4.80;99.90
43671;DHT22;29267;50.906;7.248;2022-12-07T15:33:27;4.80;99.90
43671;DHT22;29267;50.906;7.248;2022-12-07T15:35:52;4.80;99.90
43671;DHT22;29267;50.906;7.248;2022-12-07T15:38:18;4.70;99.90
43671;DHT22;29267;50.906;7.248;2022-12-07T15:40:46;4.70;99.90
43671;DHT22;29267;50.906;7.248;2022-12-07T15:43:12;4.80;99.90
43671;DHT22;29267;50.906;7.248;2022-12-07T15:45:56;4.80;99.90
43671;DHT22;29267;50.906;7.248;2022-12-07T15:48:21;4.80;99.90
43671;DHT22;29267;50.906;7.248;2022-12-07T15:50:47;4.80;99.90
43671;DHT22;29267;50.906;7.248;2022-12-07T15:53:13;4.80;99.90
43671;DHT22;29267;50.906;7.248;2022-12-07T15:55:39;4.80;99.90
43671;DHT22;29267;50.906;7.248;2022-12-07T15:58:06;4.80;99.90
43671;DHT22;29267;50.906;7.248;2022-12-07T16:00:31;4.80;99.90
43671;DHT22;29267;50.906;7.248;2022-12-07T16:02:57;4.80;99.90
43671;DHT22;29267;50.906;7.248;2022-12-07T16:05:22;4.80;99.90
43671;DHT22;29267;50.906;7.248;2022-12-07T16:07:48;4.80;99.90
43671;DHT22;29267;50.906;7.248;2022-12-07T16:10:13;4.70;99.90
43671;DHT22;29267;50.906;7.248;2022-12-07T16:12:39;4.60;99.90
43671;DHT22;29267;50.906;7.248;2022-12-07T16:15:05;4.50;99.90
43671;DHT22;29267;50.906;7.248;2022-12-07T16:17:31;4.40;99.90
43671;DHT22;29267;50.906;7.248;2022-12-07T16:19:57;4.30;99.90
43671;DHT22;29267;50.906;7.248;2022-12-07T16:22:23;4.20;99.90
43671;DHT22;29267;50.906;7.248;2022-12-07T16:24:49;4.10;99.90
43671;DHT22;29267;50.906;7.248;2022-12-07T16:27:15;4.00;99.90
43671;DHT22;29267;50.906;7.248;2022-12-07T16:29:41;4.00;99.90
43671;DHT22;29267;50.906;7.248;2022-12-07T16:32:07;4.00;99.90
43671;DHT22;29267;50.906;7.248;2022-12-07T16:34:32;4.00;99.90
43671;DHT22;29267;50.906;7.248;2022-12-07T16:36:58;4.10;99.90
43671;DHT22;29267;50.906;7.248;2022-12-07T16:39:23;4.00;99.90
43671;DHT22;29267;50.906;7.248;2022-12-07T16:41:49;4.00;99.90
43671;DHT22;29267;50.906;7.248;2022-12-07T16:44:15;4.00;99.90
43671;DHT22;29267;50.906;7.248;2022-12-07T16:46:41;4.10;99.90
43671;DHT22;29267;50.906;7.248;2022-12-07T16:49:13;4.10;99.90
43671;DHT22;29267;50.906;7.248;2022-12-07T16:51:39;4.10;99.90
43671;DHT22;29267;50.906;7.248;2022-12-07T16:54:04;4.00;99.90
43671;DHT22;29267;50.906;7.248;2022-12-07T16:56:30;4.00;99.90
43671;DHT22;29267;50.906;7.248;2022-12-07T16:58:58;4.10;99.90
43671;DHT22;29267;50.906;7.248;2022-12-07T17:01:24;4.00;99.90
43671;DHT22;29267;50.906;7.248;2022-12-07T17:03:52;4.00;99.90
43671;DHT22;29267;50.906;7.248;2022-12-07T17:06:20;4.00;99.90
43671;DHT22;29267;50.906;7.248;2022-12-07T17:08:46;3.90;99.90
43671;DHT22;29267;50.906;7.248;2022-12-07T17:11:21;3.90;99.90
43671;DHT22;29267;50.906;7.248;2022-12-07T17:13:47;3.90;99.90
43671;DHT22;29267;50.906;7.248;2022-12-07T17:16:31;3.90;99.90
43671;DHT22;29267;50.906;7.248;2022-12-07T17:18:57;3.90;99.90
43671;DHT22;29267;50.906;7.248;2022-12-07T17:21:23;3.80;99.90
43671;DHT22;29267;50.906;7.248;2022-12-07T17:23:49;3.90;99.90
43671;DHT22;29267;50.906;7.248;2022-12-07T17:26:17;3.90;99.90
43671;DHT22;29267;50.906;7.248;2022-12-07T17:28:43;3.90;99.90
43671;DHT22;29267;50.906;7.248;2022-12-07T17:31:11;3.90;99.90
43671;DHT22;29267;50.906;7.248;2022-12-07T17:33:38;3.90;99.90
43671;DHT22;29267;50.906;7.248;2022-12-07T17:36:16;3.90;99.90
43671;DHT22;29267;50.906;7.248;2022-12-07T17:38:41;3.90;99.90
43671;DHT22;29267;50.906;7.248;2022-12-07T17:41:21;3.90;99.90
43671;DHT22;29267;50.906;7.248;2022-12-07T17:44:09;3.90;99.90
43671;DHT22;29267;50.906;7.248;2022-12-07T17:46:35;3.90;99.90
43671;DHT22;29267;50.906;7.248;2022-12-07T17:49:02;3.90;99.90
43671;DHT22;29267;50.906;7.248;2022-12-07T17:51:28;3.90;99.90
43671;DHT22;29267;50.906;7.248;2022-12-07T17:54:12;3.90;99.90
43671;DHT22;29267;50.906;7.248;2022-12-07T17:56:38;4.00;99.90
43671;DHT22;29267;50.906;7.248;2022-12-07T17:59:04;4.00;99.90
43671;DHT22;29267;50.906;7.248;2022-12-07T18:01:30;4.00;99.90
43671;DHT22;29267;50.906;7.248;2022-12-07T18:03:56;4.00;99.90
43671;DHT22;29267;50.906;7.248;2022-12-07T18:06:21;4.00;99.90